Airfield :
LOGIN :

Register | Disclaimer

   EN    FR    IT 

 










Legend :    VFR   Marginal VFR   IFR   Intensive IFR   Very Intensive IFR
Visi :
Ceiling :
>= 8 km
>= 3000ft
5 to 8 km
1000 to 3000 ft
1500m to 5 km
500 to 1000 ft
800 to 1500m
200 to 500 ft
< 800m
< 200 ft
Symbols :   Thunderstorms  Fog  Heavy snow  Heavy precipitations  Wind > 20 kt
SIGMETs :     Misc.  Thunderstorms  Icing  Turbulence  Mountain Waves  Volcanic Ashes







- Airport Elevation : 489 ft
- IATA code : GDN


EPGD - Gdansk

CURRENT METAR :
  • 171500Z 31008KT 8000 -SHRA FEW040CB 20/19 Q1008

EXPIRED METARs :
  • 171430Z 35006KT 300V050 6000 -SHRA FEW006 FEW043CB 20/19 Q1008
  • 171400Z 34005KT 6000 -SHRA FEW002 SCT012CB BKN046 19/19 Q1008 RESHRA
  • 171330Z 02006KT 340V040 1500 R29/1100D SHRA FEW001 SCT012CB BKN042 19/19 Q1009
  • 171300Z 34005KT 310V010 9999 -SHRA FEW002CB SCT041 BKN049 20/19 Q1008
  • 171230Z 05005KT 360V080 7000 -SHRA FEW002CB SCT006 BKN044 20/19 Q1009

TAF AMD TAF EPGD
Valid from the 17 at 13:00 until the 18 at 12:00 UTC


171344Z 1713/1812 36005KT 9999 BKN040
TEMPO 1713/1803 3500 SHRA BKN006 BKN025CB
PROB40
TEMPO 1713/1722 1200 +SHRA BKN002 BKN010CB
PROB30
TEMPO 1714/1722 TSRA
BECMG 1723/1802 BKN008
PROB40
TEMPO 1800/1806 2000 BR BKN003
BECMG 1806/1808 SCT020
PROB40
TEMPO 1810/1812 SHRA BKN030CB
No reported NOTAMs for that airfield.
1 SIGMET reported for the Warszawa FIR (EPWW) :
 
Embedded thunderstorms and hail
EPWW SIGMET 3 VALID 171445/171645 EPWA
EPWW WARSAW FIR EMBD TSGR FCST N OF N54 AND E OF E019 AND W OF E022 TOP FL400 MOV WSW NC=



MET'MAP, your aeronautical weather chart ! - Copyright ORBIFLY December 2007 - Disclaimer

ORBIFLY MET'MAP TEAM :

Programming & Development : Alexandra Zaïnal
Concept & Development : Baudouin d'Aumeries
Co-Development & Prog : Marc-Olivier Méhu
Technical & hardware support : Manuel Goepfert

Contact : metmap@orbifly.com




SOURCES & CREDITS :

   NOAA